createdAt,value
2023-03-20T00:29:12.139Z,0
2023-03-20T00:29:52.400Z,0
2023-03-20T00:30:32.917Z,0
2023-03-20T00:35:56.856Z,0
2023-03-20T00:36:37.351Z,0
2023-03-20T00:37:17.864Z,0
2023-03-20T00:37:58.401Z,0
2023-03-20T00:38:38.887Z,0
2023-03-20T00:39:19.468Z,0
2023-03-20T00:39:59.894Z,0
2023-03-20T00:40:40.360Z,0
2023-03-20T00:41:20.918Z,0
2023-03-20T00:42:01.424Z,0
2023-03-20T00:47:16.491Z,0
2023-03-20T00:47:56.981Z,0
2023-03-20T00:48:37.502Z,0
2023-03-20T00:54:01.439Z,0
2023-03-20T00:54:41.924Z,0
2023-03-20T00:55:22.437Z,0
2023-03-20T00:56:02.892Z,0
2023-03-20T00:56:43.473Z,0
2023-03-20T00:57:23.946Z,0
2023-03-20T00:58:04.405Z,0
2023-03-20T00:58:44.898Z,0
2023-03-20T00:59:25.422Z,0
2023-03-20T01:00:05.921Z,0
2023-03-20T01:07:31.524Z,0
2023-03-20T01:08:11.984Z,0
2023-03-20T01:08:52.495Z,0
2023-03-20T01:09:33.080Z,0
2023-03-20T01:10:13.530Z,0
2023-03-20T01:10:54.035Z,0
2023-03-20T01:11:34.546Z,0
2023-03-20T01:12:15.085Z,0
2023-03-20T01:12:55.525Z,0
2023-03-20T01:13:36.002Z,0
2023-03-20T01:20:21.104Z,0
2023-03-20T01:21:01.636Z,0
2023-03-20T01:21:42.150Z,0
2023-03-20T01:22:22.724Z,0
2023-03-20T01:23:03.180Z,0
2023-03-20T01:23:43.644Z,0
2023-03-20T01:24:24.887Z,0
2023-03-20T01:25:05.421Z,0
2023-03-20T01:25:45.861Z,0
2023-03-20T01:33:11.460Z,0
2023-03-20T01:33:51.926Z,0
2023-03-20T01:34:32.443Z,0
2023-03-20T01:35:12.980Z,0
2023-03-20T01:35:53.512Z,0
2023-03-20T01:36:34.053Z,0
2023-03-20T01:37:14.531Z,0
2023-03-20T01:37:54.974Z,0
2023-03-20T01:39:16.039Z,0
2023-03-20T01:47:14.711Z,0
2023-03-20T01:47:55.682Z,0
2023-03-20T01:48:36.722Z,0
2023-03-20T01:49:58.926Z,0
2023-03-20T01:50:39.882Z,0
2023-03-20T01:51:20.895Z,0
2023-03-20T01:52:01.862Z,0
2023-03-20T01:52:42.881Z,0
2023-03-20T01:53:23.877Z,0
2023-03-20T01:57:29.838Z,0
2023-03-20T01:58:10.855Z,0
2023-03-20T01:58:51.819Z,0
2023-03-20T01:59:32.782Z,0
2023-03-20T02:00:13.779Z,0
2023-03-20T02:04:19.709Z,0
2023-03-20T02:05:00.792Z,0
2023-03-20T02:05:41.743Z,0
2023-03-20T02:06:22.772Z,0
2023-03-20T02:07:03.747Z,0
2023-03-20T02:11:09.759Z,0
2023-03-20T02:11:50.760Z,0
2023-03-20T02:12:31.762Z,0
2023-03-20T02:13:12.746Z,0
2023-03-20T02:13:53.711Z,0
2023-03-20T02:17:59.785Z,0
2023-03-20T02:18:40.829Z,0
2023-03-20T02:19:21.915Z,0
2023-03-20T02:20:02.952Z,0
2023-03-20T02:20:44.025Z,0
2023-03-20T02:24:09.116Z,0
2023-03-20T02:24:50.104Z,0
2023-03-20T02:25:31.128Z,0
2023-03-20T02:26:12.121Z,0
2023-03-20T02:26:53.146Z,0
2023-03-20T02:30:59.140Z,0
2023-03-20T02:31:40.018Z,0
2023-03-20T02:32:21.055Z,0
2023-03-20T02:33:02.030Z,0
2023-03-20T02:33:43.526Z,0
2023-03-20T02:34:24.056Z,0
2023-03-20T02:37:49.125Z,0
2023-03-20T02:38:30.202Z,0
2023-03-20T02:39:11.176Z,0
2023-03-20T02:39:52.256Z,0
2023-03-20T02:40:33.217Z,0
2023-03-20T02:44:39.182Z,0
2023-03-20T02:45:20.287Z,0
2023-03-20T02:46:01.343Z,0
2023-03-20T02:46:42.260Z,0
2023-03-20T02:47:23.267Z,0
2023-03-20T02:51:29.465Z,0
2023-03-20T02:52:10.570Z,0
2023-03-20T02:52:51.590Z,0
2023-03-20T02:53:32.579Z,0
2023-03-20T02:54:13.654Z,0
2023-03-20T02:58:19.684Z,0
2023-03-20T02:59:00.654Z,0
2023-03-20T02:59:41.641Z,0
2023-03-20T03:00:22.649Z,0
2023-03-20T03:01:03.734Z,0
2023-03-20T03:04:28.913Z,0
2023-03-20T03:05:10.016Z,0
2023-03-20T03:05:50.982Z,0
2023-03-20T03:06:32.052Z,0
2023-03-20T03:07:54.075Z,0
2023-03-20T03:11:19.083Z,0
2023-03-20T03:12:00.049Z,0
2023-03-20T03:12:41.079Z,0
2023-03-20T03:13:22.169Z,0
2023-03-20T03:14:03.131Z,0
2023-03-20T03:18:09.125Z,0
2023-03-20T03:18:50.203Z,0
2023-03-20T03:19:31.148Z,0
2023-03-20T03:20:12.162Z,0
2023-03-20T03:20:53.282Z,0
2023-03-20T03:24:59.299Z,0
2023-03-20T03:25:40.277Z,0
2023-03-20T03:26:21.343Z,0
2023-03-20T03:27:02.158Z,0
2023-03-20T03:27:43.414Z,0
2023-03-20T03:31:49.333Z,0
2023-03-20T03:32:30.354Z,0
2023-03-20T03:33:11.390Z,0
2023-03-20T03:33:52.364Z,0
2023-03-20T03:34:33.456Z,0
2023-03-20T03:38:39.766Z,0
2023-03-20T03:39:20.734Z,0
2023-03-20T03:40:01.719Z,0
2023-03-20T03:40:42.705Z,0
2023-03-20T03:41:23.716Z,0
2023-03-20T03:45:29.734Z,0
2023-03-20T03:46:10.818Z,0
2023-03-20T03:46:51.756Z,0
2023-03-20T03:47:32.928Z,0
2023-03-20T03:51:38.940Z,0
2023-03-20T03:52:19.903Z,0
2023-03-20T03:53:00.933Z,0
2023-03-20T03:53:41.874Z,0
2023-03-20T03:54:22.887Z,0
2023-03-20T03:55:03.913Z,0
2023-03-20T03:58:28.931Z,0
2023-03-20T03:59:10.077Z,0
2023-03-20T03:59:51.027Z,0
2023-03-20T04:00:32.027Z,0
2023-03-20T04:01:13.014Z,0
2023-03-20T04:01:53.991Z,0
2023-03-20T04:05:19.058Z,0
2023-03-20T04:06:00.095Z,0
2023-03-20T04:06:41.085Z,0
2023-03-20T04:07:22.235Z,0
2023-03-20T04:08:03.333Z,0
2023-03-20T04:12:09.309Z,0
2023-03-20T04:12:50.309Z,0
2023-03-20T04:14:12.405Z,0
2023-03-20T04:14:53.420Z,0
2023-03-20T04:18:59.284Z,0
2023-03-20T04:19:40.282Z,0
2023-03-20T04:20:21.261Z,0
2023-03-20T04:21:02.381Z,0
2023-03-20T04:21:43.369Z,0
2023-03-20T04:25:49.412Z,0
2023-03-20T04:26:30.425Z,0
2023-03-20T04:27:11.373Z,0
2023-03-20T04:27:52.383Z,0
2023-03-20T04:32:39.477Z,0
2023-03-20T04:33:20.440Z,0
2023-03-20T04:34:01.571Z,0
2023-03-20T04:34:42.558Z,0
2023-03-20T04:35:23.533Z,0
2023-03-20T04:39:29.635Z,0
2023-03-20T04:40:10.639Z,0
2023-03-20T04:40:51.739Z,0
2023-03-20T04:41:32.714Z,0
2023-03-20T04:42:13.725Z,0
2023-03-20T04:46:20.007Z,0
2023-03-20T04:47:00.956Z,0
2023-03-20T04:47:41.916Z,0
2023-03-20T04:48:23.204Z,0
2023-03-20T04:49:03.957Z,0
2023-03-20T04:52:28.996Z,0
2023-03-20T04:53:10.043Z,0
2023-03-20T04:53:51.197Z,0
2023-03-20T04:54:32.146Z,0
2023-03-20T04:55:13.120Z,0
2023-03-20T04:57:25.989Z,0
2023-03-20T04:58:06.474Z,0
2023-03-20T04:58:47.020Z,0
2023-03-20T05:04:11.012Z,0
2023-03-20T05:04:51.374Z,0
2023-03-20T05:05:31.838Z,0
2023-03-20T05:06:12.305Z,0
2023-03-20T05:06:52.797Z,0
2023-03-20T05:07:33.288Z,0
2023-03-20T05:08:13.808Z,0
2023-03-20T05:08:54.249Z,0
2023-03-20T05:09:34.702Z,0
2023-03-20T05:10:15.203Z,0
2023-03-20T05:10:55.756Z,0
2023-03-20T05:18:21.027Z,0
2023-03-20T05:19:01.497Z,0
2023-03-20T05:19:41.996Z,0
2023-03-20T05:20:22.508Z,0
2023-03-20T05:21:02.948Z,0
2023-03-20T05:21:43.443Z,0
2023-03-20T05:22:23.970Z,0
2023-03-20T05:23:06.264Z,0
2023-03-20T05:24:25.320Z,0
2023-03-20T05:25:05.792Z,0
2023-03-20T05:31:50.713Z,0
2023-03-20T05:32:31.165Z,0
2023-03-20T05:33:11.746Z,0
2023-03-20T05:33:52.118Z,0
2023-03-20T05:34:32.617Z,0
2023-03-20T05:35:13.101Z,0
2023-03-20T05:35:53.661Z,0
2023-03-20T05:36:34.060Z,0
2023-03-20T05:37:14.554Z,0
2023-03-20T05:37:55.003Z,0
2023-03-20T05:38:35.505Z,0
2023-03-20T05:46:00.967Z,0
2023-03-20T05:46:41.387Z,0
2023-03-20T05:47:23.630Z,0
2023-03-20T05:48:02.395Z,0
2023-03-20T05:48:42.875Z,0
2023-03-20T05:49:23.365Z,0
2023-03-20T05:50:03.911Z,0
2023-03-20T05:50:44.365Z,0
2023-03-20T05:52:05.317Z,0
2023-03-20T06:31:39.011Z,10
2023-03-20T06:32:19.500Z,10
2023-03-20T06:33:00.156Z,10
2023-03-20T06:37:43.546Z,15
2023-03-20T06:38:24.033Z,15
2023-03-20T06:39:04.529Z,15
2023-03-20T06:39:45.093Z,15
2023-03-20T06:40:25.578Z,20
2023-03-20T06:41:06.070Z,25
2023-03-20T06:41:46.697Z,25
2023-03-20T06:42:27.306Z,25
2023-03-20T06:43:07.789Z,25
2023-03-20T06:49:14.051Z,35
2023-03-20T06:49:54.574Z,25
2023-03-20T06:50:35.772Z,25
2023-03-20T06:51:15.747Z,35
2023-03-20T06:51:56.141Z,25
2023-03-20T06:52:36.684Z,20
2023-03-20T06:53:17.207Z,20
2023-03-20T07:00:21.450Z,25
2023-03-20T07:01:02.723Z,25
2023-03-20T07:01:43.577Z,25
2023-03-20T07:02:24.073Z,25
2023-03-20T07:03:45.146Z,30
2023-03-20T07:04:25.676Z,30
2023-03-20T07:05:06.204Z,30
2023-03-20T07:05:46.777Z,30
2023-03-20T07:06:27.191Z,35
2023-03-20T07:07:07.733Z,35
2023-03-20T07:07:48.304Z,35
2023-03-20T07:08:28.790Z,35
2023-03-20T07:09:10.278Z,35
2023-03-20T07:13:56.191Z,45
2023-03-20T07:14:39.173Z,35
2023-03-20T07:18:42.238Z,25
2023-03-20T07:19:22.909Z,25
2023-03-20T07:20:04.777Z,25
2023-03-20T07:20:46.301Z,25
2023-03-20T07:21:27.350Z,20
2023-03-20T07:23:33.345Z,20
2023-03-20T07:27:28.552Z,15
2023-03-20T07:28:09.015Z,15
2023-03-20T07:28:49.622Z,15
2023-03-20T07:29:30.110Z,15
2023-03-20T07:33:33.227Z,15
2023-03-20T07:34:13.919Z,10
2023-03-20T07:34:54.411Z,10
2023-03-20T07:35:35.238Z,15
2023-03-20T07:36:15.442Z,15
2023-03-20T07:36:56.061Z,15
2023-03-20T07:38:17.950Z,15
2023-03-20T07:42:53.436Z,15
2023-03-20T07:43:34.890Z,15
2023-03-20T07:44:16.154Z,15
2023-03-20T07:44:59.184Z,15
2023-03-20T07:47:08.568Z,15
2023-03-20T07:47:49.605Z,15
2023-03-20T07:50:29.308Z,15
2023-03-20T07:51:10.542Z,15
2023-03-20T07:51:52.363Z,15
2023-03-20T07:52:33.266Z,15
2023-03-20T07:53:13.843Z,15
2023-03-20T07:53:54.686Z,15
2023-03-20T07:57:36.534Z,15
2023-03-20T07:58:19.052Z,15
2023-03-20T07:59:01.084Z,15
2023-03-20T08:03:49.404Z,15
2023-03-20T08:04:29.548Z,20
2023-03-20T08:05:10.072Z,20
2023-03-20T08:05:50.589Z,20
2023-03-20T08:09:13.529Z,20
2023-03-20T08:09:54.086Z,20
2023-03-20T08:10:37.541Z,20
2023-03-20T08:11:18.151Z,20
2023-03-20T08:19:05.920Z,20
2023-03-20T08:19:46.368Z,20
2023-03-20T08:20:27.115Z,20
2023-03-20T08:21:08.312Z,20
2023-03-20T08:25:24.530Z,20
2023-03-20T08:26:04.999Z,20
2023-03-20T08:26:45.497Z,20
2023-03-20T08:27:26.052Z,20
2023-03-20T08:30:09.768Z,25
2023-03-20T08:33:39.164Z,25
2023-03-20T08:34:20.537Z,25
2023-03-20T08:35:01.045Z,25
2023-03-20T08:36:23.876Z,25
2023-03-20T08:37:04.843Z,25
2023-03-20T08:48:24.057Z,25
2023-03-20T08:49:04.572Z,25
2023-03-20T08:49:45.170Z,25
2023-03-20T08:50:26.385Z,25
2023-03-20T08:52:28.210Z,25
2023-03-20T08:53:10.961Z,25
2023-03-20T08:53:52.285Z,25
2023-03-20T08:54:32.900Z,25
2023-03-20T09:00:12.883Z,35
2023-03-20T09:00:54.449Z,35
2023-03-20T09:01:48.164Z,40
2023-03-20T09:02:16.071Z,40
2023-03-20T09:02:57.048Z,40
2023-03-20T09:03:40.069Z,40
2023-03-20T09:04:21.026Z,40
2023-03-20T09:07:46.714Z,40
2023-03-20T09:08:28.282Z,40
2023-03-20T09:09:09.978Z,40
2023-03-20T09:12:26.274Z,35
2023-03-20T09:13:23.699Z,35
2023-03-20T09:15:56.663Z,30
2023-03-20T09:16:42.423Z,30
2023-03-20T09:19:39.825Z,25
2023-03-20T09:20:20.284Z,25
2023-03-20T09:21:00.965Z,25
2023-03-20T09:21:41.714Z,25
2023-03-20T09:24:25.080Z,20
2023-03-20T09:25:08.640Z,25
2023-03-20T09:29:14.421Z,25
2023-03-20T09:35:24.237Z,40
2023-03-20T09:36:09.222Z,40
2023-03-20T09:36:51.300Z,40
2023-03-20T09:37:33.209Z,40
2023-03-20T09:38:14.954Z,40
2023-03-20T09:40:18.185Z,40
2023-03-20T09:40:59.250Z,40
2023-03-20T09:41:53.118Z,35
2023-03-20T09:44:27.892Z,35
2023-03-20T09:45:08.889Z,35
2023-03-20T09:45:50.010Z,35
2023-03-20T09:46:33.379Z,35
2023-03-20T09:47:58.472Z,35
2023-03-20T09:48:39.572Z,35
2023-03-20T09:49:21.359Z,35
2023-03-20T09:50:02.635Z,30
2023-03-20T09:53:30.391Z,30
2023-03-20T09:54:11.923Z,30
2023-03-20T09:56:51.767Z,30
2023-03-20T09:57:32.665Z,30
2023-03-20T09:58:14.204Z,30
2023-03-20T09:58:54.717Z,30
2023-03-20T09:59:37.324Z,30
2023-03-20T10:00:17.731Z,30
2023-03-20T10:07:36.372Z,35
2023-03-20T10:08:17.496Z,35
2023-03-20T10:09:01.388Z,40
2023-03-20T10:09:42.331Z,40
2023-03-20T10:10:23.456Z,40
2023-03-20T10:11:04.877Z,40
2023-03-20T10:13:51.814Z,40
2023-03-20T10:14:32.843Z,40
2023-03-20T10:18:15.478Z,35
2023-03-20T10:18:56.095Z,35
2023-03-20T10:19:36.798Z,35
2023-03-20T10:23:53.211Z,35
2023-03-20T10:24:34.729Z,35
2023-03-20T10:25:15.440Z,35
2023-03-20T10:25:56.366Z,30
2023-03-20T10:26:37.190Z,30
2023-03-20T10:27:18.474Z,30
2023-03-20T10:36:46.978Z,20
2023-03-20T10:37:27.279Z,20
2023-03-20T10:38:07.898Z,20
2023-03-20T10:42:11.178Z,20
2023-03-20T10:42:52.280Z,20
2023-03-20T10:43:33.607Z,20
2023-03-20T10:44:14.645Z,20
2023-03-20T10:46:54.899Z,20
2023-03-20T10:47:36.271Z,20
2023-03-20T10:48:16.946Z,25
2023-03-20T10:48:57.751Z,25
2023-03-20T10:49:38.292Z,25
2023-03-20T10:50:19.142Z,20
2023-03-20T10:50:59.599Z,20
2023-03-20T10:51:40.123Z,20
2023-03-20T10:52:21.065Z,20
2023-03-20T10:53:01.647Z,20
2023-03-20T10:53:42.599Z,20
2023-03-20T10:57:47.771Z,20
2023-03-20T10:58:29.141Z,20
2023-03-20T10:59:11.917Z,20
2023-03-20T11:00:38.232Z,20
2023-03-20T11:01:18.742Z,20
2023-03-20T11:01:59.987Z,20
2023-03-20T11:02:41.061Z,20
2023-03-20T11:03:21.674Z,20
2023-03-20T11:04:02.430Z,20
2023-03-20T11:09:02.114Z,20
2023-03-20T11:09:42.936Z,20
2023-03-20T11:10:24.187Z,20
2023-03-20T11:11:50.627Z,15
2023-03-20T11:12:31.216Z,15
2023-03-20T11:13:11.957Z,15
2023-03-20T11:13:52.723Z,15
2023-03-20T11:17:18.053Z,15
2023-03-20T11:18:00.440Z,15
2023-03-20T11:18:40.331Z,15
2023-03-20T11:23:17.014Z,15
2023-03-20T11:23:57.536Z,15
2023-03-20T11:27:20.112Z,15
2023-03-20T11:28:02.045Z,15
2023-03-20T11:28:43.562Z,15
2023-03-20T11:29:24.792Z,20
2023-03-20T11:33:08.492Z,25
2023-03-20T11:36:28.622Z,30
2023-03-20T11:37:11.136Z,30
2023-03-20T11:37:54.952Z,30
2023-03-20T11:40:56.572Z,30
2023-03-20T11:41:39.194Z,30
2023-03-20T11:42:17.967Z,30
2023-03-20T11:45:01.391Z,30
2023-03-20T11:45:42.207Z,30
2023-03-20T11:46:22.751Z,30
2023-03-20T11:47:03.792Z,30
2023-03-20T11:47:44.187Z,30
2023-03-20T11:48:24.877Z,30
2023-03-20T11:51:55.292Z,30
2023-03-20T11:52:36.556Z,30
2023-03-20T11:53:17.549Z,30
2023-03-20T12:32:00.953Z,40
2023-03-20T12:32:41.479Z,40
2023-03-20T12:33:21.956Z,40
2023-03-20T12:34:03.169Z,40
2023-03-20T12:36:05.383Z,40
2023-03-20T12:36:45.857Z,40
2023-03-20T12:37:26.410Z,40
2023-03-20T12:38:06.917Z,40
2023-03-20T12:38:47.521Z,35
2023-03-20T12:39:28.124Z,35
2023-03-20T12:40:08.622Z,35
2023-03-20T12:40:49.178Z,35
2023-03-20T12:41:29.691Z,35
2023-03-20T12:53:07.646Z,35
2023-03-20T12:53:47.994Z,35
2023-03-20T12:54:28.530Z,35
2023-03-20T12:58:31.854Z,35
2023-03-20T12:59:12.371Z,35
2023-03-20T12:59:52.898Z,35
2023-03-20T13:00:33.421Z,35
2023-03-20T13:01:14.040Z,35
2023-03-20T13:01:54.466Z,35
2023-03-20T13:02:35.125Z,35
2023-03-20T13:03:15.655Z,35
2023-03-20T13:03:56.254Z,35
2023-03-20T13:04:36.679Z,35
2023-03-20T13:10:41.712Z,30
2023-03-20T13:11:22.232Z,30
2023-03-20T13:12:02.785Z,30
2023-03-20T13:12:43.245Z,30
2023-03-20T13:13:23.813Z,30
2023-03-20T13:14:04.240Z,30
2023-03-20T13:14:44.826Z,30
2023-03-20T13:15:25.313Z,30
2023-03-20T13:16:05.890Z,30
2023-03-20T13:20:50.195Z,30
2023-03-20T13:21:30.915Z,25
2023-03-20T13:22:11.478Z,25
2023-03-20T13:25:35.136Z,30
2023-03-20T13:26:15.564Z,30
2023-03-20T13:26:56.194Z,30
2023-03-20T13:27:37.657Z,30
2023-03-20T13:28:17.487Z,30
2023-03-20T13:28:57.948Z,30
2023-03-20T13:29:38.494Z,30
2023-03-20T13:30:19.281Z,30
2023-03-20T13:35:44.777Z,35
2023-03-20T13:36:25.194Z,35
2023-03-20T13:37:20.136Z,35
2023-03-20T13:37:46.378Z,35
2023-03-20T13:38:26.955Z,35
2023-03-20T13:39:07.634Z,35
2023-03-20T13:39:48.498Z,35
2023-03-20T13:40:28.814Z,35
2023-03-20T13:41:09.269Z,35
2023-03-20T13:47:55.383Z,30
2023-03-20T13:48:36.026Z,30
2023-03-20T13:49:16.486Z,30
2023-03-20T13:53:47.511Z,30
2023-03-20T13:54:28.109Z,30
2023-03-20T13:55:08.629Z,30
2023-03-20T13:59:52.304Z,30
2023-03-20T14:00:32.912Z,30
2023-03-20T14:01:13.332Z,30
2023-03-20T14:01:53.873Z,30
2023-03-20T14:02:34.447Z,30
2023-03-20T14:03:14.994Z,30
2023-03-20T14:03:55.700Z,30
2023-03-20T14:04:36.087Z,30
2023-03-20T14:09:08.122Z,30
2023-03-20T14:09:49.280Z,30
2023-03-20T14:10:30.471Z,30
2023-03-20T14:11:53.318Z,30
2023-03-20T14:12:34.160Z,30
2023-03-20T14:16:13.703Z,30
2023-03-20T14:16:55.158Z,35
2023-03-20T14:17:35.751Z,35
2023-03-20T14:20:58.730Z,30
2023-03-20T14:21:39.229Z,30
2023-03-20T14:22:19.852Z,30
2023-03-20T14:23:00.395Z,25
2023-03-20T14:23:40.894Z,25
2023-03-20T14:24:21.535Z,25
2023-03-20T14:25:02.111Z,25
2023-03-20T14:25:42.834Z,25
2023-03-20T14:31:08.298Z,20
2023-03-20T14:31:48.956Z,20
2023-03-20T14:32:29.413Z,20
2023-03-20T14:33:10.150Z,15
2023-03-20T14:33:50.541Z,15
2023-03-20T14:34:31.172Z,15
2023-03-20T14:35:11.742Z,15
2023-03-20T14:35:52.331Z,15
2023-03-20T14:36:32.758Z,15
2023-03-20T14:37:13.264Z,15
2023-03-20T14:43:59.106Z,20
2023-03-20T14:44:39.616Z,20
2023-03-20T14:45:20.131Z,20
2023-03-20T14:46:00.650Z,20
2023-03-20T14:46:42.020Z,20
2023-03-20T14:47:21.812Z,20
2023-03-20T14:48:02.392Z,20
2023-03-20T14:48:42.880Z,20
2023-03-20T14:58:02.634Z,20
2023-03-20T15:03:09.925Z,20
2023-03-20T15:03:50.415Z,20
2023-03-20T15:04:30.977Z,20
2023-03-20T15:07:14.557Z,20
2023-03-20T15:07:55.076Z,20
2023-03-20T15:08:35.702Z,20
2023-03-20T15:09:16.422Z,20
2023-03-20T15:09:57.425Z,20
2023-03-20T15:13:17.909Z,20
2023-03-20T15:13:58.070Z,20
2023-03-20T15:14:38.525Z,20
2023-03-20T15:17:21.878Z,20
2023-03-20T15:18:02.303Z,20
2023-03-20T15:18:42.863Z,20
2023-03-20T15:19:23.366Z,20
2023-03-20T15:20:04.178Z,20
2023-03-20T15:21:25.097Z,20
2023-03-20T15:22:05.641Z,20
2023-03-20T15:22:46.186Z,20
2023-03-20T15:26:12.420Z,20
2023-03-20T15:26:53.233Z,15
2023-03-20T15:27:35.337Z,15
2023-03-20T15:45:36.320Z,15
2023-03-20T15:46:18.221Z,15
2023-03-20T15:46:55.922Z,15
2023-03-20T15:51:39.615Z,15
2023-03-20T15:52:20.180Z,15
2023-03-20T15:53:00.706Z,15
2023-03-20T15:53:41.243Z,15
2023-03-20T15:54:21.747Z,15
2023-03-20T15:55:02.229Z,15
2023-03-20T15:55:42.793Z,10
2023-03-20T15:56:23.403Z,10
2023-03-20T15:57:03.991Z,10
2023-03-20T16:03:49.575Z,10
2023-03-20T16:04:30.020Z,10
2023-03-20T16:05:10.522Z,10
2023-03-20T16:05:51.096Z,10
2023-03-20T16:06:31.570Z,10
2023-03-20T16:07:12.121Z,10
2023-03-20T16:07:52.663Z,10
2023-03-20T16:08:33.167Z,10
2023-03-20T16:09:13.657Z,10
2023-03-20T16:09:54.225Z,10
2023-03-20T16:16:39.501Z,5
2023-03-20T16:17:19.941Z,5
2023-03-20T16:18:00.429Z,5
2023-03-20T16:18:40.992Z,5
2023-03-20T16:19:21.518Z,5
2023-03-20T16:20:02.121Z,5
2023-03-20T16:20:42.637Z,5
2023-03-20T16:21:23.104Z,5
2023-03-20T16:22:03.757Z,5
2023-03-20T16:22:44.241Z,5
2023-03-20T16:29:29.596Z,5
2023-03-20T16:30:10.143Z,5
2023-03-20T16:30:50.650Z,5
2023-03-20T16:31:31.137Z,5
2023-03-20T16:32:11.663Z,5
2023-03-20T16:32:52.242Z,5
2023-03-20T16:33:33.451Z,5
2023-03-20T16:34:14.557Z,5
2023-03-20T16:40:19.321Z,5
2023-03-20T16:40:59.830Z,5
2023-03-20T16:41:40.345Z,5
2023-03-20T16:42:22.992Z,5
2023-03-20T16:43:03.532Z,0
2023-03-20T16:43:44.187Z,0
2023-03-20T16:50:29.399Z,0
2023-03-20T16:51:09.933Z,0
2023-03-20T16:51:50.416Z,0
2023-03-20T16:52:30.978Z,0
2023-03-20T16:53:11.492Z,0
2023-03-20T16:53:52.050Z,0
2023-03-20T16:54:32.565Z,0
2023-03-20T16:55:13.103Z,0
2023-03-20T16:55:53.567Z,0
2023-03-20T16:56:34.136Z,0
2023-03-20T17:03:19.457Z,0
2023-03-20T17:04:00.026Z,0
2023-03-20T17:04:40.606Z,0
2023-03-20T17:05:21.040Z,0
2023-03-20T17:06:01.547Z,0
2023-03-20T17:06:42.092Z,0
2023-03-20T17:07:22.643Z,0
2023-03-20T17:08:03.189Z,0
2023-03-20T17:08:43.656Z,0
2023-03-20T17:14:49.303Z,0
2023-03-20T17:15:29.831Z,0
2023-03-20T17:16:10.451Z,0
2023-03-20T17:16:51.211Z,0
2023-03-20T17:17:32.416Z,0
2023-03-20T17:18:12.977Z,0
2023-03-20T17:21:43.010Z,0
2023-03-20T17:22:23.553Z,0
2023-03-20T17:23:05.084Z,0
2023-03-20T17:26:27.023Z,0
2023-03-20T17:27:07.579Z,0
2023-03-20T17:27:48.051Z,0
2023-03-20T17:28:28.607Z,0
2023-03-20T17:29:09.168Z,0
2023-03-20T17:29:49.667Z,0
2023-03-20T17:30:30.214Z,0
2023-03-20T17:31:11.689Z,0
2023-03-20T17:35:06.342Z,0
2023-03-20T17:35:46.607Z,0
2023-03-20T17:36:27.140Z,0
2023-03-20T17:40:30.460Z,0
2023-03-20T17:41:11.024Z,0
2023-03-20T17:41:51.636Z,0
2023-03-20T17:42:32.190Z,0
2023-03-20T17:43:12.724Z,0
2023-03-20T17:43:53.300Z,0
2023-03-20T17:44:33.992Z,0
2023-03-20T17:45:14.527Z,0
2023-03-20T17:45:55.060Z,0
2023-03-20T17:52:40.900Z,0
2023-03-20T17:53:21.851Z,0
2023-03-20T17:54:02.588Z,0
2023-03-20T18:33:46.835Z,0
2023-03-20T18:34:27.587Z,0
2023-03-20T18:35:08.248Z,0
2023-03-20T18:39:11.882Z,0
2023-03-20T18:39:52.493Z,0
2023-03-20T18:40:33.148Z,0
2023-03-20T18:41:13.739Z,0
2023-03-20T18:44:55.218Z,0
2023-03-20T18:45:35.672Z,0
2023-03-20T18:46:17.176Z,0
2023-03-20T18:47:38.331Z,0
2023-03-20T18:48:18.907Z,0
2023-03-20T18:48:59.416Z,0
2023-03-20T18:49:40.092Z,0
2023-03-20T18:50:20.626Z,0
2023-03-20T18:51:01.152Z,0
2023-03-20T18:51:41.713Z,0
2023-03-20T18:52:22.350Z,0
2023-03-20T18:53:02.922Z,0
2023-03-20T18:59:48.135Z,0
2023-03-20T19:00:28.784Z,0
2023-03-20T19:01:09.225Z,0
2023-03-20T19:01:49.831Z,0
2023-03-20T19:02:30.233Z,0
2023-03-20T19:03:10.816Z,0
2023-03-20T19:03:51.336Z,0
2023-03-20T19:04:31.911Z,0
2023-03-20T19:05:12.373Z,0
2023-03-20T19:05:52.966Z,0
2023-03-20T19:13:18.460Z,0
2023-03-20T19:13:59.022Z,0
2023-03-20T19:14:39.421Z,0
2023-03-20T19:15:19.979Z,0
2023-03-20T19:16:00.446Z,0
2023-03-20T19:16:41.014Z,0
2023-03-20T19:17:21.441Z,0
2023-03-20T19:21:01.588Z,0
2023-03-20T19:21:42.068Z,0
2023-03-20T19:22:29.208Z,0
2023-03-20T19:27:46.646Z,0
2023-03-20T19:28:38.272Z,0
2023-03-20T19:29:09.025Z,0
2023-03-20T19:29:48.298Z,0
2023-03-20T19:30:28.822Z,0
2023-03-20T19:31:09.462Z,0
2023-03-20T19:31:49.831Z,0
2023-03-20T19:32:30.446Z,0
2023-03-20T19:33:10.896Z,0
2023-03-20T19:40:41.256Z,0
2023-03-20T19:41:19.774Z,0
2023-03-20T19:42:11.976Z,0
2023-03-20T19:42:56.874Z,0
2023-03-20T19:43:18.644Z,0
2023-03-20T19:43:59.226Z,0
2023-03-20T19:44:39.651Z,0
2023-03-20T19:45:20.210Z,0
2023-03-20T19:46:00.729Z,0
2023-03-20T19:52:06.366Z,0
2023-03-20T19:52:46.842Z,0
2023-03-20T19:53:27.383Z,0
2023-03-20T19:54:07.884Z,0
2023-03-20T19:55:01.740Z,0
2023-03-20T19:55:28.868Z,0
2023-03-20T19:56:09.400Z,0
2023-03-20T19:56:50.050Z,0
2023-03-20T19:57:30.508Z,0
2023-03-20T19:58:11.070Z,0
2023-03-20T20:04:56.251Z,0
2023-03-20T20:05:36.748Z,0
2023-03-20T20:06:20.074Z,0
2023-03-20T20:07:26.644Z,0
2023-03-20T20:08:11.122Z,0
2023-03-20T20:08:59.322Z,0
2023-03-20T20:09:39.814Z,0
2023-03-20T20:10:20.967Z,0
2023-03-20T20:17:06.197Z,0
2023-03-20T20:17:46.668Z,0
2023-03-20T20:18:27.164Z,0
2023-03-20T20:19:07.656Z,0
2023-03-20T20:19:48.207Z,0
2023-03-20T20:20:29.386Z,0
2023-03-20T20:22:02.375Z,0
2023-03-20T20:22:30.458Z,0
2023-03-20T20:23:10.695Z,0
2023-03-20T20:23:51.159Z,0
2023-03-20T20:32:29.204Z,0
2023-03-20T20:33:09.870Z,0
2023-03-20T20:34:07.088Z,0
2023-03-20T20:38:49.157Z,0
2023-03-20T20:39:14.085Z,0
2023-03-20T20:39:54.652Z,0
2023-03-20T20:40:35.034Z,0
2023-03-20T20:41:15.576Z,0
2023-03-20T20:41:56.044Z,0
2023-03-20T20:42:36.518Z,0
2023-03-20T20:43:39.190Z,0
2023-03-20T20:44:14.896Z,0
2023-03-20T20:44:37.971Z,0
2023-03-20T20:45:18.479Z,0
2023-03-20T20:52:03.541Z,0
2023-03-20T20:52:44.097Z,0
2023-03-20T20:53:24.586Z,0
2023-03-20T20:54:05.076Z,0
2023-03-20T20:54:45.581Z,0
2023-03-20T20:55:26.023Z,0
2023-03-20T20:56:06.528Z,0
2023-03-20T20:56:47.019Z,0
2023-03-20T20:57:27.523Z,0
2023-03-20T20:58:08.040Z,0
2023-03-20T21:05:33.515Z,0
2023-03-20T21:06:14.079Z,0
2023-03-20T21:07:11.348Z,0
2023-03-20T21:07:35.658Z,0
2023-03-20T21:08:16.373Z,0
2023-03-20T21:08:56.038Z,0
2023-03-20T21:09:36.588Z,0
2023-03-20T21:10:17.023Z,0
2023-03-20T21:10:57.557Z,0
2023-03-20T21:11:38.017Z,0
2023-03-20T21:12:32.778Z,0
2023-03-20T21:19:03.670Z,0
2023-03-20T21:19:44.100Z,0
2023-03-20T21:20:24.590Z,0
2023-03-20T21:21:05.126Z,0
2023-03-20T21:21:45.631Z,0
2023-03-20T21:22:26.101Z,0
2023-03-20T21:23:06.612Z,0
2023-03-20T21:23:47.124Z,0
2023-03-20T21:24:32.985Z,0
2023-03-20T21:25:14.917Z,0
2023-03-20T21:32:33.700Z,0
2023-03-20T21:33:14.281Z,0
2023-03-20T21:33:54.807Z,0
2023-03-20T21:34:35.245Z,0
2023-03-20T21:35:56.319Z,0
2023-03-20T21:36:36.802Z,0
2023-03-20T21:38:22.759Z,0
2023-03-20T21:38:47.340Z,0
2023-03-20T21:39:05.729Z,0
2023-03-20T21:46:52.330Z,0
2023-03-20T21:51:10.551Z,0
2023-03-20T21:52:54.428Z,0
2023-03-20T22:00:05.273Z,0
2023-03-20T22:02:21.179Z,0
2023-03-20T22:02:59.574Z,0
2023-03-20T22:09:30.649Z,0
2023-03-20T22:21:06.575Z,0
2023-03-20T22:26:29.221Z,0
2023-03-20T22:32:01.857Z,0
2023-03-20T22:32:47.414Z,0
2023-03-20T22:39:54.925Z,0
2023-03-20T22:41:59.094Z,0
2023-03-20T22:43:41.339Z,0
2023-03-20T22:51:02.307Z,0
2023-03-20T22:51:52.375Z,0
2023-03-20T22:52:32.030Z,0
2023-03-20T22:53:44.337Z,0
2023-03-20T22:54:24.835Z,0
2023-03-20T22:55:05.320Z,0
2023-03-20T22:55:45.822Z,0
2023-03-20T22:56:26.330Z,0
2023-03-20T22:57:06.885Z,0
2023-03-20T23:03:29.854Z,0
2023-03-20T23:03:52.796Z,0
2023-03-20T23:04:33.318Z,0
2023-03-20T23:05:13.789Z,0
2023-03-20T23:05:54.312Z,0
2023-03-20T23:06:34.786Z,0
2023-03-20T23:07:15.328Z,0
2023-03-20T23:07:55.830Z,0
2023-03-20T23:08:47.948Z,0
2023-03-20T23:09:16.871Z,0
2023-03-20T23:16:42.490Z,0
2023-03-20T23:17:22.965Z,0
2023-03-20T23:18:03.428Z,0
2023-03-20T23:18:43.984Z,0
2023-03-20T23:19:25.398Z,0
2023-03-20T23:20:12.053Z,0
2023-03-20T23:20:45.467Z,0
2023-03-20T23:21:25.965Z,0
2023-03-20T23:22:06.477Z,0
2023-03-20T23:22:47.067Z,0
2023-03-20T23:29:32.145Z,0
2023-03-20T23:30:12.643Z,0
2023-03-20T23:31:07.354Z,0
2023-03-20T23:31:33.740Z,0
2023-03-20T23:32:14.149Z,0
2023-03-20T23:32:54.650Z,0
2023-03-20T23:33:35.164Z,0
2023-03-20T23:34:17.453Z,0
2023-03-20T23:34:56.246Z,0
2023-03-20T23:35:36.763Z,0